createdAt,value
2022-12-05T00:00:20.580Z,6104
2022-12-05T00:05:22.306Z,6788.44444
2022-12-05T00:10:23.890Z,6788.44444
2022-12-05T00:15:25.540Z,6788.44444
2022-12-05T00:20:27.223Z,6104
2022-12-05T00:25:28.868Z,6104
2022-12-05T00:30:30.490Z,6104
2022-12-05T00:35:32.148Z,6104
2022-12-05T00:40:33.775Z,6788.44444
2022-12-05T00:45:35.561Z,6104
2022-12-05T00:50:37.267Z,6788.44444
2022-12-05T00:55:39.142Z,6788.44444
2022-12-05T01:00:40.868Z,6104
2022-12-05T01:05:42.573Z,6104
2022-12-05T01:10:44.330Z,5544
2022-12-05T01:15:45.938Z,5544
2022-12-05T01:20:47.740Z,5544
2022-12-05T01:25:49.547Z,6104
2022-12-05T01:30:51.155Z,5544
2022-12-05T01:35:52.820Z,5544
2022-12-05T01:40:54.626Z,5544
2022-12-05T01:45:56.296Z,5544
2022-12-05T01:50:58.004Z,5077.33333
2022-12-05T01:55:59.644Z,5544
2022-12-05T02:01:01.351Z,5077.33333
2022-12-05T02:06:03.159Z,5077.33333
2022-12-05T02:11:04.822Z,4344
2022-12-05T02:16:06.467Z,4682.46154
2022-12-05T02:21:08.235Z,4682.46154
2022-12-05T02:26:09.877Z,4682.46154
2022-12-05T02:31:11.596Z,5077.33333
2022-12-05T02:36:13.394Z,5077.33333
2022-12-05T02:41:15.014Z,5077.33333
2022-12-05T02:46:16.794Z,4682.46154
2022-12-05T02:51:18.539Z,4050.66667
2022-12-05T02:56:20.171Z,4344
2022-12-05T03:01:21.839Z,4682.46154
2022-12-05T03:06:23.522Z,4344
2022-12-05T03:11:25.137Z,4050.66667
2022-12-05T03:16:26.831Z,4344
2022-12-05T03:21:28.588Z,4050.66667
2022-12-05T03:26:30.237Z,4682.46154
2022-12-05T03:31:31.947Z,4344
2022-12-05T03:36:33.652Z,4682.46154
2022-12-05T03:41:35.256Z,4682.46154
2022-12-05T03:46:38.374Z,5077.33333
2022-12-05T03:51:40.209Z,5077.33333
2022-12-05T03:56:41.875Z,5077.33333
2022-12-05T04:01:43.569Z,5077.33333
2022-12-05T04:06:45.382Z,4682.46154
2022-12-05T04:11:46.969Z,4682.46154
2022-12-05T04:16:48.601Z,4682.46154
2022-12-05T04:21:50.385Z,5077.33333
2022-12-05T04:26:51.982Z,4682.46154
2022-12-05T04:31:53.586Z,5077.33333
2022-12-05T04:36:55.324Z,5544
2022-12-05T04:41:56.926Z,4682.46154
2022-12-05T04:46:58.726Z,5077.33333
2022-12-05T04:52:00.545Z,4682.46154
2022-12-05T04:57:02.274Z,4682.46154
2022-12-05T05:02:04.065Z,5077.33333
2022-12-05T05:07:05.866Z,5544
2022-12-05T05:12:08.033Z,5077.33333
2022-12-05T05:17:09.750Z,5544
2022-12-05T05:22:11.500Z,5077.33333
2022-12-05T05:27:13.168Z,4344
2022-12-05T05:32:14.861Z,4682.46154
2022-12-05T05:37:16.637Z,5077.33333
2022-12-05T05:42:18.295Z,5077.33333
2022-12-05T05:47:19.985Z,5077.33333
2022-12-05T05:52:21.832Z,5077.33333
2022-12-05T05:57:23.482Z,5077.33333
2022-12-05T06:02:25.255Z,5544
2022-12-05T06:07:27.071Z,5077.33333
2022-12-05T06:12:28.776Z,4682.46154
2022-12-05T06:17:30.462Z,4682.46154
2022-12-05T06:22:32.167Z,4682.46154
2022-12-05T06:27:33.818Z,4682.46154
2022-12-05T06:32:35.453Z,4344
2022-12-05T06:37:37.199Z,4344
2022-12-05T06:42:38.791Z,4682.46154
2022-12-05T06:47:40.407Z,4682.46154
2022-12-05T06:52:42.099Z,4344
2022-12-05T06:57:43.729Z,4682.46154
2022-12-05T07:02:45.448Z,5077.33333
2022-12-05T07:07:47.347Z,4682.46154
2022-12-05T07:12:48.982Z,4344
2022-12-05T07:17:50.572Z,4682.46154
2022-12-05T07:22:52.297Z,5077.33333
2022-12-05T07:27:53.951Z,4682.46154
2022-12-05T07:32:55.587Z,4682.46154
2022-12-05T07:37:57.292Z,4682.46154
2022-12-05T07:42:58.941Z,4050.66667
2022-12-05T07:48:00.750Z,3567.52941
2022-12-05T07:53:02.480Z,4050.66667
2022-12-05T07:58:04.091Z,3794
2022-12-05T08:03:05.727Z,4344
2022-12-05T08:08:07.521Z,5077.33333
2022-12-05T08:13:09.213Z,5077.33333
2022-12-05T08:18:10.862Z,4682.46154
2022-12-05T08:23:12.515Z,4682.46154
2022-12-05T08:28:14.105Z,4050.66667
2022-12-05T08:33:15.766Z,4344
2022-12-05T08:38:17.498Z,5077.33333
2022-12-05T08:43:19.103Z,5544
2022-12-05T08:48:24.659Z,5077.33333
2022-12-05T08:53:29.311Z,4344
2022-12-05T08:58:30.943Z,4682.46154
2022-12-05T09:03:32.561Z,5544
2022-12-05T09:08:34.291Z,4682.46154
2022-12-05T09:13:35.958Z,4344
2022-12-05T09:18:37.594Z,4344
2022-12-05T09:23:39.281Z,3794
2022-12-05T09:28:40.929Z,4344
2022-12-05T09:33:42.547Z,5077.33333
2022-12-05T09:38:44.320Z,5077.33333
2022-12-05T09:43:45.949Z,5077.33333
2022-12-05T09:48:47.579Z,4682.46154
2022-12-05T09:53:49.256Z,5077.33333
2022-12-05T09:58:50.832Z,4344
2022-12-05T10:03:52.454Z,4050.66667
2022-12-05T10:08:54.118Z,4050.66667
2022-12-05T10:13:55.721Z,4050.66667
2022-12-05T10:18:57.398Z,4344
2022-12-05T10:23:59.349Z,4050.66667
2022-12-05T10:29:01.195Z,4344
2022-12-05T10:34:02.768Z,3794
2022-12-05T10:39:09.891Z,3186.10526
2022-12-05T10:44:12.927Z,3567.52941
2022-12-05T10:49:14.517Z,3794
2022-12-05T10:54:16.223Z,4682.46154
2022-12-05T10:59:17.821Z,3567.52941
2022-12-05T11:04:20.053Z,3794
2022-12-05T11:09:21.741Z,4344
2022-12-05T11:14:23.401Z,3794
2022-12-05T11:19:25.015Z,3366.22222
2022-12-05T11:24:26.739Z,4050.66667
2022-12-05T11:29:28.354Z,4050.66667
2022-12-05T11:34:29.983Z,3794
2022-12-05T11:39:31.607Z,4050.66667
2022-12-05T11:44:33.203Z,5077.33333
2022-12-05T11:49:34.816Z,4344
2022-12-05T11:55:03.836Z,4344
2022-12-05T12:00:06.397Z,4344
2022-12-05T12:05:07.988Z,4344
2022-12-05T12:10:10.017Z,5077.33333
2022-12-05T12:15:11.943Z,5077.33333
2022-12-05T12:20:13.551Z,5077.33333
2022-12-05T12:25:15.148Z,4682.46154
2022-12-05T12:30:16.756Z,5544
2022-12-05T12:35:18.370Z,5077.33333
2022-12-05T12:40:20.014Z,4344
2022-12-05T12:45:21.641Z,4050.66667
2022-12-05T12:50:23.258Z,4682.46154
2022-12-05T12:55:24.890Z,5544
2022-12-05T13:00:26.475Z,5077.33333
2022-12-05T13:05:28.093Z,5077.33333
2022-12-05T13:10:29.944Z,5077.33333
2022-12-05T13:15:31.544Z,5544
2022-12-05T13:20:33.165Z,5077.33333
2022-12-05T13:25:34.779Z,4682.46154
2022-12-05T13:30:36.397Z,5077.33333
2022-12-05T13:35:38.008Z,5077.33333
2022-12-05T13:40:39.644Z,5077.33333
2022-12-05T13:45:41.341Z,5544
2022-12-05T13:50:42.946Z,4682.46154
2022-12-05T13:55:44.563Z,4344
2022-12-05T14:00:46.256Z,4050.66667
2022-12-05T14:05:47.946Z,4050.66667
2022-12-05T14:10:49.537Z,5077.33333
2022-12-05T14:15:51.156Z,5077.33333
2022-12-05T14:20:52.792Z,5544
2022-12-05T14:25:58.905Z,5077.33333
2022-12-05T14:31:02.070Z,4682.46154
2022-12-05T14:36:03.754Z,4682.46154
2022-12-05T14:41:06.856Z,5077.33333
2022-12-05T14:46:08.581Z,5544
2022-12-05T14:51:10.333Z,5544
2022-12-05T14:56:11.960Z,5077.33333
2022-12-05T15:01:13.597Z,5077.33333
2022-12-05T15:06:15.236Z,5077.33333
2022-12-05T15:11:16.888Z,4682.46154
2022-12-05T15:16:18.598Z,4050.66667
2022-12-05T15:21:20.270Z,4050.66667
2022-12-05T15:26:45.508Z,4050.66667
2022-12-05T15:31:48.246Z,3794
2022-12-05T15:36:49.824Z,4050.66667
2022-12-05T15:41:51.450Z,3186.10526
2022-12-05T15:46:53.088Z,4344
2022-12-05T15:51:54.676Z,5077.33333
2022-12-05T15:56:56.334Z,5077.33333
2022-12-05T16:01:58.075Z,5544
2022-12-05T16:06:59.803Z,5077.33333
2022-12-05T16:12:01.446Z,4682.46154
2022-12-05T16:17:03.063Z,4682.46154
2022-12-05T16:22:04.681Z,4050.66667
2022-12-05T16:27:06.369Z,4050.66667
2022-12-05T16:32:08.035Z,3567.52941
2022-12-05T16:37:09.749Z,2877.33333
2022-12-05T16:42:11.406Z,3024
2022-12-05T16:47:13.029Z,3567.52941
2022-12-05T16:52:14.768Z,2877.33333
2022-12-05T16:57:16.387Z,2877.33333
2022-12-05T17:02:18.177Z,2744
2022-12-05T17:07:19.932Z,2510.66667
2022-12-05T17:12:21.542Z,3366.22222
2022-12-05T17:17:23.123Z,3024
2022-12-05T17:22:24.766Z,3186.10526
2022-12-05T17:27:26.367Z,3186.10526
2022-12-05T17:32:28.003Z,3366.22222
2022-12-05T17:37:29.944Z,3024
2022-12-05T17:42:31.565Z,3366.22222
2022-12-05T17:47:33.501Z,3567.52941
2022-12-05T17:52:35.105Z,3366.22222
2022-12-05T17:57:36.884Z,3366.22222
2022-12-05T18:02:38.627Z,3366.22222
2022-12-05T18:07:40.456Z,3186.10526
2022-12-05T18:12:42.156Z,2877.33333
2022-12-05T18:17:43.957Z,3024
2022-12-05T18:22:45.539Z,3024
2022-12-05T18:27:47.198Z,3567.52941
2022-12-05T18:32:48.966Z,3567.52941
2022-12-05T18:37:50.593Z,3794
2022-12-05T18:42:52.238Z,2877.33333
2022-12-05T18:48:00.606Z,3366.22222
2022-12-05T18:53:11.924Z,4344
2022-12-05T18:58:13.524Z,4050.66667
2022-12-05T19:03:15.173Z,4344
2022-12-05T19:08:16.855Z,4682.46154
2022-12-05T19:13:18.540Z,3794
2022-12-05T19:18:20.140Z,3794
2022-12-05T19:23:21.798Z,4050.66667
2022-12-05T19:28:23.419Z,4344
2022-12-05T19:33:25.035Z,3567.52941
2022-12-05T19:38:26.636Z,3794
2022-12-05T19:43:28.271Z,3366.22222
2022-12-05T19:48:29.900Z,3794
2022-12-05T19:53:31.648Z,3794
2022-12-05T19:58:33.280Z,4344
2022-12-05T20:03:34.900Z,4050.66667
2022-12-05T20:08:36.651Z,4344
2022-12-05T20:13:46.354Z,3794
2022-12-05T20:18:48.890Z,5077.33333
2022-12-05T20:23:50.511Z,5077.33333
2022-12-05T20:28:52.206Z,4050.66667
2022-12-05T20:33:53.821Z,3567.52941
2022-12-05T20:38:55.430Z,4682.46154
2022-12-05T20:43:57.022Z,4050.66667
2022-12-05T20:48:58.858Z,3794
2022-12-05T20:54:00.515Z,3794
2022-12-05T20:59:02.431Z,4344
2022-12-05T21:04:04.052Z,4682.46154
2022-12-05T21:09:05.719Z,4682.46154
2022-12-05T21:14:07.308Z,5077.33333
2022-12-05T21:19:08.952Z,4344
2022-12-05T21:24:10.681Z,3794
2022-12-05T21:29:12.315Z,3024
2022-12-05T21:34:13.919Z,3794
2022-12-05T21:39:15.505Z,4344
2022-12-05T21:44:17.148Z,4344
2022-12-05T21:49:18.772Z,4682.46154
2022-12-05T21:54:20.407Z,4682.46154
2022-12-05T21:59:22.059Z,4050.66667
2022-12-05T22:04:23.673Z,4344
2022-12-05T22:09:25.287Z,4050.66667
2022-12-05T22:14:27.326Z,4344
2022-12-05T22:19:28.975Z,4050.66667
2022-12-05T22:24:30.658Z,3794
2022-12-05T22:29:32.244Z,3794
2022-12-05T22:34:33.899Z,3794
2022-12-05T22:39:35.529Z,4050.66667
2022-12-05T22:44:37.148Z,4050.66667
2022-12-05T22:49:38.757Z,4050.66667
2022-12-05T22:54:40.349Z,4050.66667
2022-12-05T22:59:41.961Z,3567.52941
2022-12-05T23:04:43.613Z,4344
2022-12-05T23:09:45.255Z,4682.46154
2022-12-05T23:14:46.935Z,3794
2022-12-05T23:19:48.503Z,3794
2022-12-05T23:24:50.165Z,2877.33333
2022-12-05T23:29:51.789Z,3794
2022-12-05T23:34:53.649Z,3794
2022-12-05T23:39:55.740Z,4050.66667
2022-12-05T23:44:57.539Z,3567.52941
2022-12-05T23:49:59.494Z,3567.52941
2022-12-05T23:55:01.391Z,3366.22222
